createdAt,value
2023-01-19T00:00:52.145Z,100623.69
2023-01-19T00:03:18.872Z,100620.84
2023-01-19T00:05:45.590Z,100621.00
2023-01-19T00:08:15.414Z,100620.34
2023-01-19T00:10:43.352Z,100612.69
2023-01-19T00:13:09.990Z,100618.25
2023-01-19T00:15:36.830Z,100622.25
2023-01-19T00:18:03.578Z,100616.53
2023-01-19T00:20:32.813Z,100612.97
2023-01-19T00:22:59.994Z,100620.69
2023-01-19T00:25:27.098Z,100627.19
2023-01-19T00:27:53.871Z,100638.28
2023-01-19T00:30:20.616Z,100638.81
2023-01-19T00:32:47.299Z,100644.41
2023-01-19T00:35:13.940Z,100658.44
2023-01-19T00:37:40.593Z,100660.50
2023-01-19T00:40:07.590Z,100654.44
2023-01-19T00:42:40.193Z,100673.06
2023-01-19T00:45:14.658Z,100663.94
2023-01-19T00:47:41.476Z,100676.56
2023-01-19T00:50:11.892Z,100679.28
2023-01-19T00:52:41.592Z,100680.03
2023-01-19T00:55:08.653Z,100692.56
2023-01-19T00:57:35.319Z,100688.56
2023-01-19T01:00:02.026Z,100706.13
2023-01-19T01:02:28.975Z,100715.78
2023-01-19T01:04:56.742Z,100722.81
2023-01-19T01:07:24.588Z,100720.47
2023-01-19T01:09:51.271Z,100728.25
2023-01-19T01:12:17.931Z,100726.75
2023-01-19T01:14:44.596Z,100725.97
2023-01-19T01:17:11.652Z,100745.00
2023-01-19T01:19:38.583Z,100744.22
2023-01-19T01:22:05.569Z,100741.00
2023-01-19T01:24:32.722Z,100732.78
2023-01-19T01:26:59.501Z,100729.91
2023-01-19T01:29:26.655Z,100728.47
2023-01-19T01:31:53.373Z,100730.75
2023-01-19T01:34:20.017Z,100736.69
2023-01-19T01:36:46.688Z,100745.16
2023-01-19T01:39:13.370Z,100750.88
2023-01-19T01:41:40.013Z,100749.53
2023-01-19T01:44:26.574Z,100751.41
2023-01-19T01:46:53.499Z,100744.91
2023-01-19T01:49:20.165Z,100759.47
2023-01-19T01:51:48.454Z,100758.41
2023-01-19T01:54:21.791Z,100755.06
2023-01-19T01:56:50.101Z,100747.66
2023-01-19T01:59:25.842Z,100758.00
2023-01-19T02:02:13.352Z,100761.19
2023-01-19T02:04:43.385Z,100754.84
2023-01-19T02:07:30.846Z,100767.19
2023-01-19T02:10:15.987Z,100768.44
2023-01-19T02:13:01.787Z,100769.09
2023-01-19T02:15:28.637Z,100781.81
2023-01-19T02:17:55.255Z,100782.34
2023-01-19T02:20:24.459Z,100801.31
2023-01-19T02:22:51.831Z,100794.81
2023-01-19T02:25:19.454Z,100809.59
2023-01-19T02:27:46.129Z,100814.25
2023-01-19T02:30:13.478Z,100809.66
2023-01-19T02:32:40.086Z,100806.06
2023-01-19T02:35:07.174Z,100813.59
2023-01-19T02:37:37.579Z,100807.50
2023-01-19T02:40:05.314Z,100809.06
2023-01-19T02:42:34.661Z,100821.56
2023-01-19T02:45:06.653Z,100825.22
2023-01-19T02:47:40.703Z,100831.03
2023-01-19T02:50:27.322Z,100823.41
2023-01-19T02:53:00.817Z,100832.41
2023-01-19T02:55:29.314Z,100832.69
2023-01-19T02:58:05.147Z,100817.84
2023-01-19T03:00:37.714Z,100824.22
2023-01-19T03:03:13.314Z,100831.16
2023-01-19T03:05:39.909Z,100823.69
2023-01-19T03:08:06.497Z,100819.09
2023-01-19T03:10:54.132Z,100831.84
2023-01-19T03:13:31.219Z,100831.75
2023-01-19T03:16:00.800Z,100826.47
2023-01-19T03:18:29.975Z,100828.53
2023-01-19T03:20:59.941Z,100816.75
2023-01-19T03:23:29.194Z,100834.78
2023-01-19T03:25:57.930Z,100839.22
2023-01-19T03:28:26.037Z,100838.41
2023-01-19T03:31:01.723Z,100823.94
2023-01-19T03:33:31.871Z,100836.88
2023-01-19T03:36:03.744Z,100838.25
2023-01-19T03:38:33.044Z,100840.03
2023-01-19T03:41:02.329Z,100826.19
2023-01-19T03:43:31.526Z,100816.47
2023-01-19T03:45:58.605Z,100812.03
2023-01-19T03:48:25.506Z,100829.78
2023-01-19T03:50:52.709Z,100827.00
2023-01-19T03:53:20.553Z,100833.66
2023-01-19T03:55:48.601Z,100835.88
2023-01-19T03:58:15.322Z,100831.47
2023-01-19T04:00:42.340Z,100837.84
2023-01-19T04:03:16.356Z,100847.00
2023-01-19T04:05:44.452Z,100842.00
2023-01-19T04:08:11.988Z,100846.72
2023-01-19T04:10:38.973Z,100838.50
2023-01-19T04:13:05.959Z,100843.41
2023-01-19T04:15:32.960Z,100833.13
2023-01-19T04:18:00.268Z,100817.28
2023-01-19T04:20:28.291Z,100835.50
2023-01-19T04:22:56.189Z,100841.44
2023-01-19T04:25:22.906Z,100845.59
2023-01-19T04:27:51.842Z,100839.75
2023-01-19T04:30:18.543Z,100829.94
2023-01-19T04:32:45.258Z,100827.44
2023-01-19T04:35:11.944Z,100830.34
2023-01-19T04:37:38.526Z,100822.16
2023-01-19T04:40:05.478Z,100843.09
2023-01-19T04:42:32.500Z,100847.00
2023-01-19T04:44:59.166Z,100853.50
2023-01-19T04:47:25.775Z,100850.72
2023-01-19T04:49:52.421Z,100860.31
2023-01-19T04:52:19.567Z,100863.91
2023-01-19T04:54:46.213Z,100869.03
2023-01-19T04:57:12.860Z,100883.88
2023-01-19T04:59:39.536Z,100890.13
2023-01-19T05:02:06.216Z,100886.91
2023-01-19T05:04:32.970Z,100905.50
2023-01-19T05:06:59.686Z,100889.66
2023-01-19T05:09:27.220Z,100888.84
2023-01-19T05:11:54.062Z,100899.97
2023-01-19T05:14:20.939Z,100903.84
2023-01-19T05:16:47.613Z,100895.78
2023-01-19T05:19:14.199Z,100906.78
2023-01-19T05:21:40.836Z,100918.88
2023-01-19T05:24:07.600Z,100902.53
2023-01-19T05:26:34.248Z,100902.38
2023-01-19T05:29:00.880Z,100911.91
2023-01-19T05:31:27.540Z,100909.56
2023-01-19T05:33:54.259Z,100901.19
2023-01-19T05:36:20.925Z,100911.66
2023-01-19T05:38:47.516Z,100915.41
2023-01-19T05:41:14.313Z,100908.44
2023-01-19T05:43:40.968Z,100906.66
2023-01-19T05:46:07.737Z,100900.28
2023-01-19T05:48:34.408Z,100923.81
2023-01-19T05:51:01.589Z,100919.63
2023-01-19T05:53:28.876Z,100925.59
2023-01-19T05:56:02.136Z,100930.31
2023-01-19T05:58:29.213Z,100931.41
2023-01-19T06:00:55.876Z,100931.19
2023-01-19T06:03:22.594Z,100925.78
2023-01-19T06:05:49.218Z,100920.66
2023-01-19T06:08:15.897Z,100938.72
2023-01-19T06:10:42.567Z,100954.41
2023-01-19T06:13:11.166Z,100969.41
2023-01-19T06:15:38.190Z,100970.97
2023-01-19T06:18:05.008Z,100970.50
2023-01-19T06:20:31.722Z,100977.50
2023-01-19T06:22:58.880Z,100979.34
2023-01-19T06:25:26.070Z,100980.94
2023-01-19T06:27:52.691Z,100980.84
2023-01-19T06:30:19.446Z,100976.13
2023-01-19T06:32:46.128Z,100975.00
2023-01-19T06:35:13.211Z,100974.88
2023-01-19T06:37:40.260Z,100983.88
2023-01-19T06:40:07.912Z,100985.75
2023-01-19T06:42:35.435Z,100982.47
2023-01-19T06:45:02.128Z,100977.84
2023-01-19T06:47:28.810Z,100992.81
2023-01-19T06:49:55.909Z,100989.34
2023-01-19T06:52:22.504Z,100989.13
2023-01-19T06:54:49.737Z,100989.66
2023-01-19T06:57:16.526Z,100994.25
2023-01-19T06:59:44.138Z,100998.63
2023-01-19T07:02:26.930Z,101008.09
2023-01-19T07:04:54.885Z,101012.19
2023-01-19T07:07:21.529Z,101015.78
2023-01-19T07:09:48.209Z,101005.81
2023-01-19T07:12:14.871Z,100997.25
2023-01-19T07:14:42.435Z,101019.03
2023-01-19T07:17:09.205Z,101019.34
2023-01-19T07:19:36.092Z,101026.16
2023-01-19T07:22:03.270Z,101027.63
2023-01-19T07:24:33.714Z,101030.03
2023-01-19T07:27:00.457Z,101013.41
2023-01-19T07:29:27.165Z,101007.19
2023-01-19T07:31:56.861Z,101011.44
2023-01-19T07:34:23.532Z,101009.94
2023-01-19T07:36:50.184Z,101007.00
2023-01-19T07:39:17.119Z,101020.97
2023-01-19T07:41:43.716Z,101034.16
2023-01-19T07:44:10.417Z,101040.53
2023-01-19T07:46:37.061Z,101028.38
2023-01-19T07:49:03.756Z,101013.09
2023-01-19T07:51:30.410Z,101019.09
2023-01-19T07:53:57.065Z,101034.50
2023-01-19T07:56:24.583Z,101033.56
2023-01-19T07:58:52.627Z,101038.16
2023-01-19T08:01:19.675Z,101037.72
2023-01-19T08:03:47.721Z,101045.50
2023-01-19T08:06:33.630Z,101044.81
2023-01-19T08:09:00.304Z,101051.19
2023-01-19T08:11:26.926Z,101045.63
2023-01-19T08:13:53.549Z,101066.31
2023-01-19T08:16:20.236Z,101070.75
2023-01-19T08:18:46.889Z,101073.69
2023-01-19T08:21:13.460Z,101059.63
2023-01-19T08:23:40.340Z,101066.81
2023-01-19T08:26:27.550Z,101073.78
2023-01-19T08:28:54.644Z,101071.03
2023-01-19T08:31:24.467Z,101068.75
2023-01-19T08:33:51.897Z,101077.97
2023-01-19T08:36:18.743Z,101077.06
2023-01-19T08:38:45.904Z,101081.53
2023-01-19T08:41:12.884Z,101091.28
2023-01-19T08:43:39.591Z,101097.19
2023-01-19T08:46:06.372Z,101105.47
2023-01-19T08:48:33.332Z,101092.22
2023-01-19T08:51:00.571Z,101103.47
2023-01-19T08:53:27.424Z,101103.88
2023-01-19T08:55:55.538Z,101102.75
2023-01-19T08:58:22.188Z,101111.50
2023-01-19T09:00:49.194Z,101125.81
2023-01-19T09:03:16.003Z,101128.78
2023-01-19T09:05:43.983Z,101122.75
2023-01-19T09:08:13.027Z,101118.06
2023-01-19T09:10:44.035Z,101126.94
2023-01-19T09:13:11.186Z,101128.75
2023-01-19T09:15:38.323Z,101131.19
2023-01-19T09:18:07.047Z,101141.78
2023-01-19T09:20:36.076Z,101131.94
2023-01-19T09:23:02.888Z,101139.66
2023-01-19T09:25:29.681Z,101135.75
2023-01-19T09:27:56.460Z,101133.97
2023-01-19T09:30:23.072Z,101131.56
2023-01-19T09:32:49.814Z,101139.78
2023-01-19T09:35:16.582Z,101140.91
2023-01-19T09:37:46.534Z,101149.16
2023-01-19T09:40:14.073Z,101147.38
2023-01-19T09:42:44.890Z,101138.31
2023-01-19T09:45:19.032Z,101148.19
2023-01-19T09:47:48.591Z,101151.81
2023-01-19T09:50:36.511Z,101157.84
2023-01-19T09:53:07.421Z,101166.25
2023-01-19T09:55:34.155Z,101162.19
2023-01-19T09:58:01.269Z,101158.25
2023-01-19T10:00:28.835Z,101173.50
2023-01-19T10:02:58.451Z,101158.78
2023-01-19T10:05:25.309Z,101153.22
2023-01-19T10:07:53.244Z,101136.69
2023-01-19T10:10:20.136Z,101156.16
2023-01-19T10:12:52.591Z,101158.84
2023-01-19T10:15:37.801Z,101158.88
2023-01-19T10:18:07.655Z,101143.94
2023-01-19T10:20:43.507Z,101158.97
2023-01-19T10:23:32.464Z,101164.50
2023-01-19T10:26:01.333Z,101162.38
2023-01-19T10:28:28.108Z,101152.81
2023-01-19T10:30:55.387Z,101131.16
2023-01-19T10:33:22.298Z,101135.69
2023-01-19T10:35:49.017Z,101144.56
2023-01-19T10:38:22.214Z,101136.28
2023-01-19T10:40:51.956Z,101140.78
2023-01-19T10:43:37.216Z,101124.78
2023-01-19T10:46:08.253Z,101136.31
2023-01-19T10:48:40.066Z,101125.66
2023-01-19T10:51:07.292Z,101115.31
2023-01-19T10:53:33.918Z,101122.91
2023-01-19T10:56:12.249Z,101101.56
2023-01-19T10:58:40.373Z,101117.72
2023-01-19T11:01:13.498Z,101120.09
2023-01-19T11:03:40.403Z,101114.34
2023-01-19T11:06:16.029Z,101114.81
2023-01-19T11:08:43.659Z,101107.75
2023-01-19T11:11:12.480Z,101106.56
2023-01-19T11:13:39.982Z,101104.06
2023-01-19T11:16:08.414Z,101104.25
2023-01-19T11:18:39.278Z,101098.13
2023-01-19T11:21:13.947Z,101097.16
2023-01-19T11:23:50.973Z,101093.78
2023-01-19T11:26:28.905Z,101086.66
2023-01-19T11:28:56.757Z,101080.53
2023-01-19T11:31:29.412Z,101077.81
2023-01-19T11:33:57.277Z,101069.88
2023-01-19T11:36:25.991Z,101071.41
2023-01-19T11:38:56.973Z,101056.97
2023-01-19T11:41:28.140Z,101056.97
2023-01-19T11:43:56.835Z,101050.31
2023-01-19T11:46:24.401Z,101035.00
2023-01-19T11:49:02.129Z,101040.66
2023-01-19T11:51:34.419Z,101030.66
2023-01-19T11:54:02.877Z,101025.63
2023-01-19T11:56:29.667Z,101006.47
2023-01-19T11:58:56.778Z,101008.75
2023-01-19T12:01:34.833Z,101007.16
2023-01-19T12:04:10.424Z,101009.28
2023-01-19T12:06:39.512Z,101001.75
2023-01-19T12:09:11.608Z,100986.91
2023-01-19T12:11:44.310Z,100992.72
2023-01-19T12:14:17.205Z,100992.94
2023-01-19T12:16:44.763Z,100983.16
2023-01-19T12:19:16.850Z,100982.69
2023-01-19T12:21:44.739Z,100982.22
2023-01-19T12:24:11.398Z,100972.31
2023-01-19T12:26:43.928Z,100987.03
2023-01-19T12:29:15.444Z,100968.19
2023-01-19T12:31:43.095Z,100963.41
2023-01-19T12:34:31.215Z,100965.06
2023-01-19T12:37:01.203Z,100954.41
2023-01-19T12:39:28.132Z,100955.13
2023-01-19T12:42:24.125Z,100958.19
2023-01-19T12:45:03.274Z,100947.69
2023-01-19T12:47:30.056Z,100950.31
2023-01-19T12:50:03.185Z,100948.31
2023-01-19T12:52:51.496Z,100954.88
2023-01-19T12:55:23.182Z,100951.28
2023-01-19T12:57:58.514Z,100938.84
2023-01-19T13:00:25.557Z,100935.84
2023-01-19T13:02:55.318Z,100928.22
2023-01-19T13:05:32.619Z,100933.56
2023-01-19T13:08:02.921Z,100918.94
2023-01-19T13:10:48.303Z,100911.19
2023-01-19T13:13:18.821Z,100908.03
2023-01-19T13:15:45.627Z,100912.66
2023-01-19T13:18:34.103Z,100912.19
2023-01-19T13:21:05.522Z,100893.00
2023-01-19T13:23:47.310Z,100881.06
2023-01-19T13:26:15.605Z,100888.66
2023-01-19T13:28:43.379Z,100878.44
2023-01-19T13:31:11.159Z,100866.31
2023-01-19T13:33:49.070Z,100852.63
2023-01-19T13:36:23.779Z,100846.47
2023-01-19T13:38:51.454Z,100845.34
2023-01-19T13:41:20.691Z,100849.28
2023-01-19T13:43:48.164Z,100844.16
2023-01-19T13:46:17.350Z,100843.59
2023-01-19T13:48:53.785Z,100818.44
2023-01-19T13:51:20.620Z,100819.47
2023-01-19T13:53:54.340Z,100816.69
2023-01-19T13:56:23.216Z,100813.00
2023-01-19T13:59:10.429Z,100812.53
2023-01-19T14:01:38.547Z,100803.06
2023-01-19T14:04:05.427Z,100799.25
2023-01-19T14:06:32.069Z,100798.91
2023-01-19T14:09:16.631Z,100785.44
2023-01-19T14:11:44.767Z,100787.09
2023-01-19T14:14:24.867Z,100779.66
2023-01-19T14:16:51.552Z,100778.56
2023-01-19T14:19:18.145Z,100779.66
2023-01-19T14:21:46.094Z,100769.56
2023-01-19T14:24:19.345Z,100761.84
2023-01-19T14:26:47.605Z,100760.94
2023-01-19T14:29:17.055Z,100769.94
2023-01-19T14:31:49.913Z,100762.69
2023-01-19T14:34:29.742Z,100766.00
2023-01-19T14:36:56.407Z,100763.97
2023-01-19T14:39:24.559Z,100772.34
2023-01-19T14:41:54.963Z,100762.91
2023-01-19T14:44:40.076Z,100768.09
2023-01-19T14:47:07.404Z,100768.38
2023-01-19T14:49:41.901Z,100754.31
2023-01-19T14:52:19.847Z,100742.59
2023-01-19T14:54:47.466Z,100756.63
2023-01-19T14:57:14.631Z,100760.66
2023-01-19T14:59:41.550Z,100753.75
2023-01-19T15:02:09.210Z,100743.41
2023-01-19T15:04:35.954Z,100746.72
2023-01-19T15:07:02.805Z,100761.41
2023-01-19T15:09:29.502Z,100743.50
2023-01-19T15:11:56.162Z,100747.28
2023-01-19T15:14:22.888Z,100750.50
2023-01-19T15:16:49.677Z,100751.69
2023-01-19T15:19:17.004Z,100746.34
2023-01-19T15:21:46.292Z,100746.44
2023-01-19T15:24:14.088Z,100750.03
2023-01-19T15:26:42.672Z,100736.72
2023-01-19T15:29:25.461Z,100732.59
2023-01-19T15:31:52.570Z,100721.03
2023-01-19T15:34:19.317Z,100727.16
2023-01-19T15:36:46.095Z,100722.13
2023-01-19T15:39:12.684Z,100718.63
2023-01-19T15:41:40.372Z,100721.50
2023-01-19T15:44:07.186Z,100720.91
2023-01-19T15:46:33.924Z,100721.69
2023-01-19T15:49:00.591Z,100721.56
2023-01-19T15:51:27.428Z,100721.56
2023-01-19T15:53:54.815Z,100707.78
2023-01-19T15:56:23.479Z,100711.56
2023-01-19T15:58:50.629Z,100708.16
2023-01-19T16:01:18.721Z,100722.56
2023-01-19T16:03:46.142Z,100710.81
2023-01-19T16:06:13.226Z,100707.03
2023-01-19T16:08:40.149Z,100714.13
2023-01-19T16:11:07.816Z,100710.09
2023-01-19T16:13:34.751Z,100705.59
2023-01-19T16:16:02.992Z,100697.34
2023-01-19T16:18:29.603Z,100691.00
2023-01-19T16:20:56.318Z,100690.16
2023-01-19T16:23:22.937Z,100689.25
2023-01-19T16:25:57.129Z,100680.63
2023-01-19T16:28:24.040Z,100673.47
2023-01-19T16:30:51.700Z,100669.16
2023-01-19T16:33:18.562Z,100657.47
2023-01-19T16:35:45.279Z,100659.88
2023-01-19T16:38:12.007Z,100659.13
2023-01-19T16:40:38.748Z,100653.72
2023-01-19T16:43:05.583Z,100643.91
2023-01-19T16:45:32.230Z,100663.53
2023-01-19T16:47:58.878Z,100642.25
2023-01-19T16:50:25.502Z,100630.75
2023-01-19T16:52:55.891Z,100631.69
2023-01-19T16:55:22.559Z,100628.03
2023-01-19T16:57:49.167Z,100624.63
2023-01-19T17:00:15.971Z,100622.69
2023-01-19T17:02:43.194Z,100631.69
2023-01-19T17:05:10.118Z,100620.31
2023-01-19T17:07:36.878Z,100621.84
2023-01-19T17:10:03.631Z,100631.31
2023-01-19T17:12:32.227Z,100622.13
2023-01-19T17:14:59.124Z,100616.28
2023-01-19T17:17:25.787Z,100614.91
2023-01-19T17:19:52.507Z,100606.44
2023-01-19T17:22:19.230Z,100594.53
2023-01-19T17:24:46.731Z,100601.59
2023-01-19T17:27:13.334Z,100584.28
2023-01-19T17:29:40.019Z,100590.13
2023-01-19T17:32:06.660Z,100580.84
2023-01-19T17:34:33.639Z,100585.56
2023-01-19T17:37:03.159Z,100582.53
2023-01-19T17:39:30.143Z,100577.94
2023-01-19T17:41:56.767Z,100579.03
2023-01-19T17:44:23.566Z,100587.19
2023-01-19T17:46:50.329Z,100587.19
2023-01-19T17:49:17.012Z,100576.13
2023-01-19T17:51:43.688Z,100578.13
2023-01-19T17:54:11.340Z,100568.94
2023-01-19T17:56:38.813Z,100562.34
2023-01-19T17:59:07.727Z,100554.00
2023-01-19T18:01:37.840Z,100544.44
2023-01-19T18:04:04.678Z,100546.66
2023-01-19T18:06:31.363Z,100544.91
2023-01-19T18:08:59.292Z,100537.75
2023-01-19T18:11:26.693Z,100541.88
2023-01-19T18:13:53.678Z,100542.72
2023-01-19T18:16:22.213Z,100550.06
2023-01-19T18:18:49.889Z,100543.25
2023-01-19T18:21:17.021Z,100541.88
2023-01-19T18:23:45.141Z,100535.38
2023-01-19T18:26:16.460Z,100520.78
2023-01-19T18:28:43.137Z,100506.88
2023-01-19T18:31:11.029Z,100504.38
2023-01-19T18:33:38.574Z,100498.88
2023-01-19T18:36:05.549Z,100488.59
2023-01-19T18:38:32.281Z,100482.28
2023-01-19T18:41:06.515Z,100489.44
2023-01-19T18:43:33.651Z,100472.63
2023-01-19T18:46:00.264Z,100461.94
2023-01-19T18:48:27.025Z,100464.13
2023-01-19T18:50:54.002Z,100446.59
2023-01-19T18:53:20.822Z,100443.03
2023-01-19T18:55:52.176Z,100437.53
2023-01-19T18:58:19.093Z,100434.69
2023-01-19T19:00:45.689Z,100427.28
2023-01-19T19:03:12.708Z,100418.09
2023-01-19T19:05:39.546Z,100420.19
2023-01-19T19:08:06.517Z,100414.25
2023-01-19T19:10:33.192Z,100400.75
2023-01-19T19:13:16.180Z,100404.50
2023-01-19T19:15:44.419Z,100398.09
2023-01-19T19:18:13.720Z,100383.78
2023-01-19T19:20:42.117Z,100391.69
2023-01-19T19:23:08.870Z,100384.53
2023-01-19T19:25:35.553Z,100371.41
2023-01-19T19:28:02.209Z,100367.78
2023-01-19T19:30:28.968Z,100374.75
2023-01-19T19:32:56.475Z,100367.41
2023-01-19T19:35:23.949Z,100342.47
2023-01-19T19:37:51.580Z,100344.13
2023-01-19T19:40:18.333Z,100347.03
2023-01-19T19:42:45.050Z,100339.53
2023-01-19T19:45:12.133Z,100345.75
2023-01-19T19:47:38.766Z,100349.28
2023-01-19T19:50:05.563Z,100332.94
2023-01-19T19:52:32.176Z,100333.94
2023-01-19T19:54:58.808Z,100306.94
2023-01-19T19:57:25.476Z,100317.50
2023-01-19T19:59:52.191Z,100310.28
2023-01-19T20:02:18.848Z,100298.25
2023-01-19T20:04:45.678Z,100293.09
2023-01-19T20:07:12.319Z,100292.47
2023-01-19T20:09:38.981Z,100301.13
2023-01-19T20:12:05.801Z,100284.00
2023-01-19T20:14:32.447Z,100285.91
2023-01-19T20:16:59.100Z,100273.72
2023-01-19T20:19:25.926Z,100252.03
2023-01-19T20:21:52.689Z,100245.69
2023-01-19T20:24:20.286Z,100231.31
2023-01-19T20:26:49.631Z,100233.53
2023-01-19T20:29:16.427Z,100219.53
2023-01-19T20:31:44.918Z,100221.00
2023-01-19T20:34:13.064Z,100230.16
2023-01-19T20:36:41.240Z,100199.75
2023-01-19T20:39:12.419Z,100194.81
2023-01-19T20:41:43.617Z,100181.72
2023-01-19T20:44:14.213Z,100167.78
2023-01-19T20:46:40.942Z,100166.09
2023-01-19T20:49:07.749Z,100161.03
2023-01-19T20:51:35.598Z,100156.75
2023-01-19T20:54:02.324Z,100153.91
2023-01-19T20:56:29.002Z,100145.75
2023-01-19T20:58:55.727Z,100130.13
2023-01-19T21:01:23.998Z,100121.09
2023-01-19T21:03:51.074Z,100121.16
2023-01-19T21:06:18.321Z,100114.22
2023-01-19T21:08:45.661Z,100126.31
2023-01-19T21:11:13.341Z,100096.13
2023-01-19T21:13:40.391Z,100091.09
2023-01-19T21:16:07.368Z,100071.03
2023-01-19T21:18:34.097Z,100075.88
2023-01-19T21:21:00.748Z,100056.00
2023-01-19T21:23:27.695Z,100064.16
2023-01-19T21:25:59.192Z,100047.16
2023-01-19T21:28:29.207Z,100047.34
2023-01-19T21:30:55.994Z,100037.91
2023-01-19T21:33:23.222Z,100024.53
2023-01-19T21:35:53.793Z,100031.31
2023-01-19T21:38:21.147Z,100021.63
2023-01-19T21:40:48.238Z,100012.72
2023-01-19T21:43:14.949Z,100003.38
2023-01-19T21:45:43.074Z,100002.09
2023-01-19T21:48:10.173Z,100002.09
2023-01-19T21:50:36.863Z,99992.03
2023-01-19T21:53:05.899Z,99981.63
2023-01-19T21:55:33.253Z,99972.78
2023-01-19T21:57:59.885Z,99961.59
2023-01-19T22:00:26.991Z,99973.78
2023-01-19T22:03:03.469Z,99967.28
2023-01-19T22:05:36.193Z,99962.66
2023-01-19T22:08:09.636Z,99950.63
2023-01-19T22:10:39.181Z,99960.88
2023-01-19T22:13:06.751Z,99943.47
2023-01-19T22:15:33.476Z,99930.72
2023-01-19T22:18:00.171Z,99937.03
2023-01-19T22:20:26.798Z,99938.00
2023-01-19T22:22:53.473Z,99953.34
2023-01-19T22:25:23.871Z,99945.38
2023-01-19T22:27:50.460Z,99947.91
2023-01-19T22:30:17.328Z,99954.28
2023-01-19T22:32:44.725Z,99953.88
2023-01-19T22:35:11.558Z,99943.91
2023-01-19T22:37:38.359Z,99955.78
2023-01-19T22:40:05.202Z,99953.50
2023-01-19T22:42:31.889Z,99948.22
2023-01-19T22:44:59.389Z,99949.09
2023-01-19T22:47:26.069Z,99959.72
2023-01-19T22:49:52.702Z,99969.78
2023-01-19T22:52:19.364Z,99971.47
2023-01-19T22:54:45.944Z,99971.28
2023-01-19T22:57:12.623Z,99970.44
2023-01-19T22:59:39.297Z,99974.91
2023-01-19T23:02:06.099Z,99978.22
2023-01-19T23:04:32.839Z,99990.44
2023-01-19T23:06:59.473Z,99981.81
2023-01-19T23:09:26.087Z,99992.84
2023-01-19T23:11:52.999Z,99990.88
2023-01-19T23:14:20.710Z,99996.13
2023-01-19T23:16:56.121Z,99996.25
2023-01-19T23:19:22.774Z,100020.16
2023-01-19T23:21:52.955Z,99988.34
2023-01-19T23:24:19.702Z,99975.47
2023-01-19T23:26:46.273Z,99977.25
2023-01-19T23:29:14.249Z,99986.53
2023-01-19T23:31:44.175Z,99971.75
2023-01-19T23:34:12.127Z,99986.69
2023-01-19T23:36:39.764Z,99991.16
2023-01-19T23:39:09.947Z,99991.00
2023-01-19T23:41:36.801Z,99983.97
2023-01-19T23:44:03.787Z,99981.59
2023-01-19T23:46:30.834Z,99962.31
2023-01-19T23:48:57.781Z,99985.41
2023-01-19T23:51:26.496Z,99971.81
2023-01-19T23:53:53.372Z,99964.72
2023-01-19T23:56:21.577Z,99970.34
2023-01-19T23:58:58.497Z,99972.13
